Latest Weather Observations for PORTABLE QFRI (Inglewood)

IDQ60801

Issued at 3:52 pm EST Sunday 15 September 2019 (issued every 10 minutes, with the page automatically refreshed every 10 minutes)

About weather observations | Map of weather stations | Latest weather observations for QLD | Other Formats
Station Details ID: 250073 Name: PORTABLE QFRI (INGLEWOOD) Lat: -28.42 Lon: 151.10 Height: 286.0 m
Data from the previous 72 hours. | See also: Recent months for locations in Queensland
Date/Time
EST
Temp
°C
App
Temp
°C
Dew
Point
°C
Rel
Hum
%
Delta-T
°C
Wind Press
QNH
hPa
Press
MSL
hPa
Rain since
9am
mm
Dir  Spd
km/h
Gust
km/h
Spd
kts
Gust
kts
15/03:40pm 28.4 24.0 -5.4 10 14.7 S 9 11 5 6 - - 0.0
15/03:30pm 28.3 24.5 -5.2 11 14.6 SE 6 7 3 4 - - 0.0
15/03:20pm 28.3 24.5 -5.7 10 14.7 SSE 6 11 3 6 - - 0.0
15/03:10pm 28.2 23.9 -5.3 11 14.6 SW 9 15 5 8 - - 0.0
15/03:00pm 28.5 24.2 -5.2 10 14.7 SSW 9 13 5 7 - - 0.0
15/02:50pm 28.3 24.0 -4.9 11 14.6 SSE 9 13 5 7 - - 0.0
15/02:40pm 28.4 24.7 -4.6 11 14.6 S 6 11 3 6 - - 0.0
15/02:30pm 28.3 24.5 -5.1 11 14.6 SSE 6 9 3 5 - - 0.0
15/02:20pm 28.5 24.6 -5.1 11 14.7 SSE 7 11 4 6 - - 0.0
15/02:10pm 28.4 25.0 -5.2 11 14.7 SE 4 9 2 5 - - 0.0
15/02:00pm 28.2 24.9 -4.7 11 14.5 SSE 4 6 2 3 - - 0.0
15/01:50pm 27.7 23.8 -4.6 12 14.2 ESE 7 9 4 5 - - 0.0
15/01:40pm 27.6 24.2 -4.9 11 14.2 SSE 4 6 2 3 - - 0.0
15/01:30pm 27.2 23.3 -4.6 12 13.9 SSE 7 9 4 5 - - 0.0
15/01:20pm 27.0 23.1 -4.4 12 13.7 W 7 13 4 7 - - 0.0
15/01:10pm 26.7 22.1 -4.4 12 13.6 E 11 13 6 7 - - 0.0
15/01:00pm 26.6 21.9 -5.3 12 13.7 ESE 11 15 6 8 - - 0.0
15/12:50pm 26.5 22.1 -5.5 12 13.7 SE 9 11 5 6 - - 0.0
15/12:40pm 26.6 22.3 -5.1 12 13.6 ESE 9 11 5 6 - - 0.0
15/12:30pm 26.3 22.7 -3.5 14 13.2 E 6 11 3 6 - - 0.0
15/12:20pm 26.5 23.1 -1.7 15 12.9 E 6 7 3 4 - - 0.0
15/12:10pm 26.2 23.0 -0.7 17 12.5 ENE 6 9 3 5 - - 0.0
15/12:00pm 26.1 22.3 -1.0 17 12.5 NNE 9 13 5 7 - - 0.0
15/11:50am 25.9 22.7 0.6 19 12.0 NE 7 11 4 6 - - 0.0
15/11:40am 25.8 23.0 1.8 21 11.6 ENE 6 9 3 5 - - 0.0
15/11:30am 25.9 23.6 2.8 22 11.4 ENE 4 9 2 5 - - 0.0
15/11:20am 25.3 22.9 2.4 22 11.2 ENE 4 7 2 4 - - 0.0
15/11:10am 24.8 22.2 3.1 24 10.7 ENE 6 9 3 5 - - 0.0
15/11:00am 24.3 21.9 2.1 23 10.7 ENE 4 7 2 4 - - 0.0
15/10:50am 23.8 21.3 3.5 26 10.0 ENE 6 9 3 5 - - 0.0
15/10:40am 23.7 21.4 4.8 29 9.6 N 6 7 3 4 - - 0.0
15/10:30am 23.2 21.0 5.2 31 9.1 E 6 9 3 5 - - 0.0
15/10:20am 22.5 20.7 5.4 33 8.7 NE 4 7 2 4 - - 0.0
15/10:00am 21.8 19.5 5.8 35 8.1 N 7 11 4 6 - - 0.0
15/09:50am 21.3 19.2 5.8 36 7.9 NNE 6 11 3 6 - - 0.0
15/09:40am 20.6 18.4 6.1 39 7.4 NNE 7 9 4 5 - - 0.0
15/09:30am 19.9 17.3 6.2 41 6.9 NNE 9 11 5 6 - - 0.0
15/09:20am 19.6 17.4 6.1 41 6.8 NNE 7 13 4 7 - - 0.0
15/09:10am 18.7 16.2 6.4 44 6.2 NE 9 11 5 6 - - 0.0
15/09:00am 18.2 16.2 6.1 45 6.0 N 6 7 3 4 - - 0.0
15/08:50am 17.7 15.5 6.0 46 5.8 NE 7 9 4 5 - - 0.0
15/08:40am 16.9 14.6 5.8 48 5.5 NE 7 9 4 5 - - 0.0
15/08:30am 16.6 14.5 5.8 49 5.3 NE 6 7 3 4 - - 0.0
15/08:20am 16.0 14.0 4.2 45 5.6 NE 4 7 2 4 - - 0.0
15/08:10am 15.3 13.0 3.0 43 5.6 NNE 4 6 2 3 - - 0.0
15/08:00am 14.4 12.1 2.5 44 5.4 NNE 4 4 2 2 - - 0.0
15/07:50am 12.9 11.0 0.5 42 5.3 CALM 0 2 0 1 - - 0.0
15/07:40am 11.2 8.3 -0.8 43 4.9 NNE 4 6 2 3 - - 0.0
15/07:30am 9.8 6.7 -2.5 42 4.7 N 4 6 2 3 - - 0.0
15/07:20am 8.8 5.6 -3.2 42 4.5 N 4 6 2 3 - - 0.0
15/07:10am 7.8 4.6 -3.7 44 4.2 N 4 4 2 2 - - 0.0
15/07:00am 6.8 4.2 -5.3 42 4.2 CALM 0 4 0 2 - - 0.0
15/06:50am 5.6 2.8 -6.6 41 4.0 CALM 0 2 0 1 - - 0.0
15/06:40am 4.9 1.7 -7.5 40 4.0 NNE 2 4 1 2 - - 0.0
15/06:30am 4.5 1.3 -7.5 41 3.8 NE 2 4 1 2 - - 0.0
15/06:20am 4.6 2.3 -2.5 60 2.6 CALM 0 0 0 0 - - 0.0
15/06:10am 4.4 2.2 -1.7 64 2.2 CALM 0 0 0 0 - - 0.0
15/06:00am 4.4 2.1 -2.2 62 2.4 CALM 0 0 0 0 - - 0.0
15/05:50am 4.6 2.3 -2.1 62 2.4 CALM 0 2 0 1 - - 0.0
15/05:40am 4.5 1.5 -2.0 63 2.4 ESE 4 4 2 2 - - 0.0
15/05:30am 4.7 1.6 -2.6 59 2.6 E 4 6 2 3 - - 0.0
15/05:20am 5.2 1.6 -3.3 54 3.0 E 6 6 3 3 - - 0.0
15/05:10am 5.3 2.2 -6.0 44 3.8 E 2 4 1 2 - - 0.0
15/05:00am 5.6 2.3 -4.3 49 3.5 E 4 6 2 3 - - 0.0
15/04:50am 5.7 2.4 -4.4 48 3.5 E 4 6 2 3 - - 0.0
15/04:40am 5.7 2.5 -3.5 51 3.3 E 4 4 2 2 - - 0.0
15/04:30am 5.9 2.7 -3.9 49 3.5 E 4 6 2 3 - - 0.0
15/04:20am 6.2 2.4 -5.8 42 4.1 E 6 6 3 3 - - 0.0
15/04:10am 6.1 2.6 -6.4 40 4.2 E 4 6 2 3 - - 0.0
15/04:00am 6.0 2.8 -6.7 39 4.2 ENE 2 4 1 2 - - 0.0
15/03:50am 6.1 3.3 -6.6 39 4.2 CALM 0 2 0 1 - - 0.0
15/03:40am 6.1 3.3 -6.7 39 4.2 CALM 0 0 0 0 - - 0.0
15/03:30am 5.9 2.8 -6.6 40 4.1 ENE 2 4 1 2 - - 0.0
15/03:20am 5.9 3.0 -7.8 36 4.4 CALM 0 2 0 1 - - 0.0
15/03:10am 5.9 2.7 -7.4 38 4.3 NE 2 4 1 2 - - 0.0
15/03:00am 6.0 2.8 -7.2 38 4.3 E 2 4 1 2 - - 0.0
15/02:50am 6.1 2.4 -8.4 34 4.6 NE 4 4 2 2 - - 0.0
15/02:40am 6.2 2.5 -8.5 34 4.7 NNE 4 6 2 3 - - 0.0
15/02:30am 6.8 3.1 -8.3 33 4.9 NE 4 4 2 2 - - 0.0
15/02:20am 7.0 3.4 -7.9 34 4.9 NE 4 4 2 2 - - 0.0
15/02:10am 7.2 4.0 -7.7 34 4.9 NE 2 4 1 2 - - 0.0
15/02:00am 7.4 4.1 -7.8 33 5.0 NE 2 4 1 2 - - 0.0
15/01:50am 7.5 3.9 -7.7 33 5.0 NE 4 6 2 3 - - 0.0
15/01:40am 7.2 4.0 -7.6 34 4.9 NE 2 4 1 2 - - 0.0
15/01:30am 7.7 3.7 -7.7 32 5.1 ENE 6 6 3 3 - - 0.0
15/01:20am 7.9 4.2 -8.0 31 5.2 ENE 4 6 2 3 - - 0.0
15/01:10am 8.0 4.4 -7.8 32 5.2 NE 4 4 2 2 - - 0.0
15/01:00am 8.3 4.7 -7.9 31 5.4 NE 4 4 2 2 - - 0.0
15/12:50am 8.6 4.9 -8.2 29 5.6 NE 4 4 2 2 - - 0.0
15/12:40am 8.5 4.8 -8.1 30 5.5 NE 4 6 2 3 - - 0.0
15/12:30am 8.7 5.0 -8.6 28 5.7 NE 4 6 2 3 - - 0.0
15/12:20am 9.1 5.3 -9.7 25 6.0 NE 4 6 2 3 - - 0.0
15/12:10am 9.6 5.9 -8.3 27 6.0 NE 4 4 2 2 - - 0.0
15/12:00am 9.8 6.2 -7.5 29 5.9 ENE 4 6 2 3 - - 0.0
 
Date/Time
EST
Temp
°C
App
Temp
°C
Dew
Point
°C
Rel
Hum
%
Delta-T
°C
Wind Press
QNH
hPa
Press
MSL
hPa
Rain since
9am
mm
Dir  Spd
km/h
Gust
km/h
Spd
kts
Gust
kts
14/11:50pm 10.6 6.9 -8.3 25 6.4 ENE 4 6 2 3 - - 0.0
14/11:40pm 11.8 7.7 -9.2 22 7.1 ENE 6 6 3 3 - - 0.0
14/11:30pm 12.3 8.2 -8.5 22 7.2 NE 6 6 3 3 - - 0.0
14/11:20pm 12.3 8.2 -8.8 22 7.2 NE 6 6 3 3 - - 0.0
14/11:10pm 12.2 8.9 -8.1 23 7.1 NNW 2 4 1 2 - - 0.0
14/11:00pm 12.4 9.1 -8.6 22 7.2 ENE 2 4 1 2 - - 0.0
14/10:50pm 12.8 9.5 -8.8 21 7.4 ENE 2 4 1 2 - - 0.0
14/10:40pm 13.1 9.4 -8.9 21 7.6 ENE 4 7 2 4 - - 0.0
14/10:30pm 13.2 8.5 -9.3 20 7.7 E 9 11 5 6 - - 0.0
14/10:20pm 13.0 7.5 -9.2 20 7.6 - 13 15 7 8 - - 0.0
14/10:10pm 13.1 8.5 -7.6 23 7.4 ESE 9 11 5 6 - - 0.0
14/10:00pm 13.1 8.8 -9.1 20 7.6 E 7 11 4 6 - - 0.0
14/09:50pm 12.9 8.8 -9.2 20 7.6 E 6 11 3 6 - - 0.0
14/09:40pm 12.8 9.1 -8.1 22 7.3 ESE 4 15 2 8 - - 0.0
14/09:30pm 13.0 9.3 -8.6 21 7.5 E 4 6 2 3 - - 0.0
14/09:20pm 13.2 9.5 -8.5 21 7.6 ESE 4 6 2 3 - - 0.0
14/09:10pm 13.2 9.2 -5.3 27 6.9 ESE 7 15 4 8 - - 0.0
14/09:00pm 14.2 10.5 -8.7 19 8.1 ENE 4 6 2 3 - - 0.0
14/08:50pm 14.4 11.7 -6.2 23 7.7 CALM 0 2 0 1 - - 0.0
14/08:40pm 15.4 12.4 -9.3 17 8.7 CALM 0 0 0 0 - - 0.0
14/08:30pm 15.8 12.7 -10.5 15 9.1 CALM 0 0 0 0 - - 0.0
14/08:20pm 16.4 13.4 -9.6 16 9.2 CALM 0 0 0 0 - - 0.0
14/08:10pm 17.9 14.5 -9.3 15 9.9 W 2 4 1 2 - - 0.0
14/08:00pm 19.4 15.5 -11.1 12 10.9 W 4 4 2 2 - - 0.0
14/07:50pm 20.0 16.0 -13.0 10 11.4 W 4 4 2 2 - - 0.0
14/07:40pm 20.3 15.9 -13.3 9 11.6 W 6 7 3 4 - - 0.0
14/07:30pm 20.6 16.2 -13.0 9 11.7 W 6 7 3 4 - - 0.0
14/07:20pm 21.5 17.1 -13.1 9 12.2 W 6 7 3 4 - - 0.0
14/07:10pm 21.8 17.3 -14.0 8 12.4 W 6 6 3 3 - - 0.0
14/07:00pm 22.0 17.6 -13.4 8 12.4 W 6 6 3 3 - - 0.0
14/06:50pm 22.2 17.7 -14.0 8 12.6 W 6 7 3 4 - - 0.0
14/06:40pm 22.0 17.5 -14.1 8 12.5 WSW 6 7 3 4 - - 0.0
14/06:30pm 22.7 18.1 -13.7 8 12.8 WSW 7 9 4 5 - - 0.0
14/06:20pm 23.2 17.8 -14.2 7 13.1 WSW 11 11 6 6 - - 0.0
14/06:10pm 23.6 18.2 -14.3 7 13.3 WSW 11 13 6 7 - - 0.0
14/06:00pm 24.2 18.4 -14.5 6 13.7 WSW 13 15 7 8 - - 0.0
14/05:50pm 25.1 19.3 -14.5 6 14.1 WSW 13 17 7 9 - - 0.0
14/05:40pm 25.6 19.0 -14.9 6 14.4 WSW 17 20 9 11 - - 0.0
14/05:30pm 26.1 19.5 -14.8 6 14.7 WSW 17 19 9 10 - - 0.0
14/05:20pm 26.7 20.1 -14.8 5 15.0 WSW 17 20 9 11 - - 0.0
14/05:10pm 27.1 20.1 -15.2 5 15.3 WSW 19 22 10 12 - - 0.0
14/05:00pm 27.4 21.2 -15.3 5 15.4 WSW 15 22 8 12 - - 0.0
14/04:50pm 27.5 20.5 -15.7 5 15.5 WSW 19 22 10 12 - - 0.0
14/04:40pm 27.7 20.5 -16.0 5 15.7 WSW 20 26 11 14 - - 0.0
14/04:30pm 27.8 20.8 -15.9 5 15.7 W 19 22 10 12 - - 0.0
14/04:20pm 27.9 20.7 -15.3 5 15.7 WSW 20 22 11 12 - - 0.0
14/04:10pm 28.0 20.8 -14.7 5 15.7 WSW 20 24 11 13 - - 0.0
14/04:00pm 28.0 21.1 -13.5 6 15.6 WSW 19 20 10 11 - - 0.0
14/03:50pm 28.0 21.1 -12.9 6 15.5 WSW 19 26 10 14 - - 0.0
14/03:40pm 28.1 20.7 -12.5 6 15.5 WSW 22 26 12 14 - - 0.0
14/03:30pm 27.9 20.5 -11.9 6 15.3 WSW 22 28 12 15 - - 0.0
14/03:20pm 27.9 21.0 -11.0 7 15.2 W 20 26 11 14 - - 0.0
14/03:10pm 28.0 21.1 -10.5 7 15.2 WSW 20 24 11 13 - - 0.0
14/03:00pm 28.2 21.5 -10.5 7 15.3 WSW 19 26 10 14 - - 0.0
14/02:50pm 28.0 21.1 -10.7 7 15.3 WSW 20 28 11 15 - - 0.0
14/02:40pm 27.7 20.4 -10.6 7 15.1 WSW 22 24 12 13 - - 0.0
14/02:30pm 27.5 20.6 -10.1 8 14.9 W 20 22 11 12 - - 0.0
14/02:20pm 27.6 20.7 -10.3 7 15.0 W 20 28 11 15 - - 0.0
14/02:10pm 27.6 20.9 -10.0 8 15.0 WSW 19 24 10 13 - - 0.0
14/02:00pm 27.8 21.0 -9.8 8 15.0 WSW 20 28 11 15 - - 0.0
14/01:50pm 27.5 20.9 -9.5 8 14.8 WSW 19 26 10 14 - - 0.0
14/01:40pm 27.6 20.7 -10.4 7 15.0 WSW 20 26 11 14 - - 0.0
14/01:30pm 27.5 22.7 -10.9 7 15.0 WSW 9 19 5 10 - - 0.0
14/01:20pm 27.4 21.5 -9.8 8 14.8 SW 15 19 8 10 - - 0.0
14/01:10pm 27.3 21.8 -9.3 8 14.7 SW 13 19 7 10 - - 0.0
14/01:00pm 27.2 22.2 -8.3 9 14.5 W 11 19 6 10 - - 0.0
14/12:50pm 26.9 21.5 -8.2 9 14.3 WNW 13 17 7 9 - - 0.0
14/12:40pm 26.7 22.2 -7.3 10 14.1 WNW 9 15 5 8 - - 0.0
14/12:30pm 26.5 22.0 -7.1 10 13.9 WSW 9 15 5 8 - - 0.0
14/12:20pm 25.9 20.6 -7.6 10 13.7 SW 13 19 7 10 - - 0.0
14/12:10pm 25.9 21.3 -7.6 10 13.7 WSW 9 13 5 7 - - 0.0
14/12:00pm 25.8 20.8 -7.9 10 13.7 WSW 11 15 6 8 - - 0.0
14/11:50am 25.6 21.4 -8.1 10 13.6 SW 7 13 4 7 - - 0.0
14/11:40am 25.0 20.5 -7.0 11 13.1 SW 9 15 5 8 - - 0.0
14/11:30am 24.9 20.8 -6.8 11 13.0 S 7 13 4 7 - - 0.0
14/11:20am 24.4 20.3 -6.2 12 12.7 S 7 13 4 7 - - 0.0
14/11:10am 24.1 19.3 -5.9 13 12.4 SW 11 15 6 8 - - 0.0
14/11:00am 23.9 18.3 -6.5 12 12.4 SW 15 19 8 10 - - 0.0
14/10:50am 23.5 18.3 -5.7 14 12.1 SW 13 15 7 8 - - 0.0
14/10:40am 23.0 18.1 -3.8 16 11.4 WSW 13 17 7 9 - - 0.0
14/10:30am 22.7 18.7 -2.6 18 11.0 WSW 9 13 5 7 - - 0.0
14/10:20am 22.3 18.3 -2.0 19 10.7 SW 9 13 5 7 - - 0.0
14/10:10am 22.3 18.8 -1.5 20 10.6 WSW 7 11 4 6 - - 0.0
14/10:00am 21.9 18.7 -0.4 22 10.1 SW 6 9 3 5 - - 0.0
14/09:50am 20.8 18.1 0.2 25 9.3 WSW 4 6 2 3 - - 0.0
14/09:40am 20.5 17.8 0.4 26 9.1 W 4 7 2 4 - - 0.0
14/09:30am 19.9 17.2 0.2 26 8.9 W 4 6 2 3 - - 0.0
14/09:20am 19.6 17.0 1.0 29 8.5 N 4 6 2 3 - - 0.0
14/09:10am 18.8 16.7 1.4 31 7.9 NE 2 4 1 2 - - 0.0
14/09:00am 17.7 15.6 1.8 34 7.3 NNE 2 4 1 2 - - 0.0
14/08:50am 17.0 14.9 1.6 35 7.0 NE 2 6 1 3 - - 0.0
14/08:40am 16.2 13.8 2.1 38 6.4 ENE 4 7 2 4 - - 0.0
14/08:30am 15.4 13.0 2.3 41 5.9 E 4 7 2 4 - - 0.0
14/08:20am 14.5 12.1 2.2 43 5.5 SE 4 6 2 3 - - 0.0
14/08:10am 13.4 11.0 2.1 46 5.0 SE 4 6 2 3 - - 0.0
14/08:00am 12.6 10.1 1.7 47 4.7 SE 4 6 2 3 - - 0.0
14/07:50am 11.9 9.3 1.2 48 4.6 ESE 4 6 2 3 - - 0.0
14/07:40am 11.2 8.2 0.6 48 4.4 E 6 6 3 3 - - 0.0
14/07:30am 10.3 7.2 0.0 49 4.2 E 6 6 3 3 - - 0.0
14/07:20am 9.4 6.2 -0.4 50 3.9 E 6 7 3 4 - - 0.0
14/07:10am 8.5 5.3 -0.8 52 3.7 E 6 6 3 3 - - 0.0
14/07:00am 7.8 4.8 -1.7 51 3.6 E 4 4 2 2 - - 0.0
14/06:50am 6.9 4.4 -4.1 45 3.9 CALM 0 2 0 1 - - 0.0
14/06:40am 6.0 3.5 -4.3 47 3.6 CALM 0 0 0 0 - - 0.0
14/06:30am 5.0 2.4 -4.9 49 3.4 CALM 0 2 0 1 - - 0.0
14/06:20am 4.3 1.0 -4.7 52 3.1 E 4 4 2 2 - - 0.0
14/06:10am 3.8 -0.1 -6.3 47 3.3 ENE 6 6 3 3 - - 0.0
14/06:00am 3.6 -0.3 -7.0 46 3.4 ENE 6 6 3 3 - - 0.0
14/05:50am 3.8 0.6 -7.0 45 3.4 ENE 2 4 1 2 - - 0.0
14/05:40am 4.0 0.9 -6.6 46 3.4 ENE 2 4 1 2 - - 0.0
14/05:30am 4.2 0.7 -5.9 48 3.3 ENE 4 6 2 3 - - 0.0
14/05:20am 4.3 0.4 -6.1 47 3.4 ENE 6 6 3 3 - - 0.0
14/05:10am 4.7 1.6 -5.8 46 3.5 NE 2 4 1 2 - - 0.0
14/05:00am 5.4 2.5 -4.1 50 3.3 ENE 2 6 1 3 - - 0.0
14/04:50am 5.9 2.5 -2.2 56 3.0 E 6 6 3 3 - - 0.0
14/04:40am 5.9 2.2 -2.9 53 3.2 E 7 7 4 4 - - 0.0
14/04:30am 6.2 2.7 -1.7 57 3.0 E 7 7 4 4 - - 0.0
14/04:20am 6.3 2.7 -2.0 55 3.1 E 7 9 4 5 - - 0.0
14/04:10am 6.5 2.8 -2.6 52 3.4 E 7 9 4 5 - - 0.0
14/04:00am 6.3 2.6 -2.6 53 3.3 E 7 7 4 4 - - 0.0
14/03:50am 6.1 2.6 -2.9 52 3.3 ENE 6 7 3 4 - - 0.0
14/03:40am 6.6 3.1 -3.2 49 3.6 ENE 6 6 3 3 - - 0.0
14/03:30am 6.6 2.8 -3.5 48 3.7 E 7 7 4 4 - - 0.0
14/03:20am 6.9 3.3 -3.9 46 3.9 ENE 6 7 3 4 - - 0.0
14/03:10am 7.2 3.5 -3.2 47 3.8 E 7 7 4 4 - - 0.0
14/03:00am 7.6 4.1 -2.7 48 3.8 E 6 7 3 4 - - 0.0
14/02:50am 7.8 4.4 -2.1 49 3.8 E 6 6 3 3 - - 0.0
14/02:40am 7.8 4.4 -2.2 49 3.8 E 6 7 3 4 - - 0.0
14/02:30am 8.6 5.1 -2.9 44 4.3 E 6 6 3 3 - - 0.0
14/02:20am 8.9 5.8 -2.7 44 4.4 ENE 4 6 2 3 - - 0.0
14/02:10am 8.9 6.1 -2.9 43 4.5 E 2 4 1 2 - - 0.0
14/02:00am 9.2 6.0 -3.2 41 4.7 ENE 4 4 2 2 - - 0.0
14/01:50am 9.7 7.0 -2.3 43 4.6 ESE 2 4 1 2 - - 0.0
14/01:40am 10.1 7.0 -2.5 41 4.9 NNE 4 6 2 3 - - 0.0
14/01:30am 9.9 6.9 -2.2 42 4.7 E 4 4 2 2 - - 0.0
14/01:20am 10.3 7.2 -2.6 40 5.0 NE 4 6 2 3 - - 0.0
14/01:10am 10.7 7.3 -1.8 41 4.9 E 6 7 3 4 - - 0.0
14/01:00am 11.8 8.5 -1.6 39 5.4 ENE 6 7 3 4 - - 0.0
14/12:50am 12.6 9.2 -2.2 35 5.9 ENE 6 6 3 3 - - 0.0
14/12:40am 12.8 9.5 -1.3 37 5.8 E 6 7 3 4 - - 0.0
14/12:30am 13.6 10.7 -1.4 35 6.2 ENE 4 7 2 4 - - 0.0
14/12:20am 14.3 11.4 -1.0 35 6.4 E 4 7 2 4 - - 0.0
14/12:10am 14.8 11.5 -1.4 33 6.7 ENE 6 7 3 4 - - 0.0
14/12:00am 14.2 10.9 -1.6 33 6.5 E 6 7 3 4 - - 0.0
 
Date/Time
EST
Temp
°C
App
Temp
°C
Dew
Point
°C
Rel
Hum
%
Delta-T
°C
Wind Press
QNH
hPa
Press
MSL
hPa
Rain since
9am
mm
Dir  Spd
km/h
Gust
km/h
Spd
kts
Gust
kts
13/11:50pm 14.6 11.0 -2.1 31 6.8 E 7 7 4 4 - - 0.0
13/11:40pm 15.1 11.5 -2.2 30 7.1 E 7 9 4 5 - - 0.0
13/11:30pm 15.2 11.5 -2.7 29 7.3 ESE 7 11 4 6 - - 0.0
13/11:20pm 15.1 10.9 -3.7 27 7.5 E 9 13 5 7 - - 0.0
13/11:10pm 14.7 11.8 -3.9 27 7.3 E 2 6 1 3 - - 0.0
13/11:00pm 15.1 11.2 -4.6 25 7.7 NE 7 9 4 5 - - 0.0
13/10:50pm 15.5 11.8 -4.8 24 7.9 E 6 7 3 4 - - 0.0
13/10:40pm 15.4 11.5 -4.7 24 7.8 ESE 7 13 4 7 - - 0.0
13/10:30pm 15.6 10.9 -5.0 24 8.0 - 11 17 6 9 - - 0.0
13/10:20pm 14.5 10.0 -7.3 21 7.9 E 9 11 5 6 - - 0.0
13/10:10pm 15.9 11.3 -7.4 19 8.6 E 9 11 5 6 - - 0.0
13/10:00pm 15.7 10.7 -7.9 19 8.6 ESE 11 11 6 6 - - 0.0
13/09:50pm 15.1 10.4 -9.3 17 8.6 ESE 9 11 5 6 - - 0.0
13/09:40pm 13.7 9.5 -10.2 18 8.1 SE 6 9 3 5 - - 0.0
13/09:30pm 14.4 10.9 -10.4 17 8.4 S 2 4 1 2 - - 0.0
13/09:20pm 15.1 12.0 -10.0 17 8.7 CALM 0 4 0 2 - - 0.0
13/09:10pm 15.7 11.9 -9.6 16 8.9 E 4 6 2 3 - - 0.0
13/09:00pm 16.5 12.3 -10.0 15 9.3 ESE 6 7 3 4 - - 0.0
13/08:50pm 16.7 12.8 -10.9 14 9.6 SE 4 7 2 4 - - 0.0
13/08:40pm 16.9 12.5 -10.5 14 9.6 SE 7 13 4 7 - - 0.0
13/08:30pm 15.8 10.6 -11.4 14 9.2 ESE 11 17 6 9 - - 0.0
13/08:20pm 15.7 11.9 -10.1 16 9.0 SW 4 6 2 3 - - 0.0
13/08:00pm 16.4 12.2 -10.7 14 9.4 WSW 6 6 3 3 - - 0.0
13/07:50pm 16.6 12.7 -11.7 13 9.6 W 4 6 2 3 - - 0.0
13/07:40pm 17.0 13.0 -12.4 12 9.9 WNW 4 4 2 2 - - 0.0
13/07:30pm 17.3 12.9 -13.3 11 10.2 NW 6 6 3 3 - - 0.0
13/07:20pm 17.8 13.8 -13.1 11 10.4 N 4 6 2 3 - - 0.0
13/07:10pm 18.3 13.9 -12.5 11 10.5 NW 6 11 3 6 - - 0.0
13/07:00pm 19.0 15.4 -13.1 10 10.9 N 2 4 1 2 - - 0.0
13/06:50pm 19.8 16.5 -13.3 9 11.3 CALM 0 2 0 1 - - 0.0
13/06:40pm 21.3 17.4 -11.6 10 11.9 SSW 4 6 2 3 - - 0.0
13/06:30pm 22.3 17.9 -13.7 8 12.6 SSW 6 6 3 3 - - 0.0
13/06:20pm 23.4 19.3 -14.4 7 13.3 S 4 6 2 3 - - 0.0
13/06:10pm 24.0 19.5 -15.1 6 13.6 S 6 7 3 4 - - 0.0
13/06:00pm 24.6 19.8 -16.3 5 14.0 SSW 7 7 4 4 - - 0.0
13/05:50pm 25.2 20.4 -17.2 5 14.4 S 7 7 4 4 - - 0.0
13/05:40pm 25.6 20.8 -17.4 5 14.7 S 7 9 4 5 - - 0.0
13/05:30pm 26.3 21.5 -17.8 4 15.1 S 7 9 4 5 - - 0.0
13/05:20pm 26.9 22.1 -18.0 4 15.4 S 7 11 4 6 - - 0.0
13/05:10pm 27.3 22.4 -18.9 4 15.7 S 7 9 4 5 - - 0.0
13/05:00pm 27.5 22.2 -19.5 3 15.8 SSW 9 13 5 7 - - 0.0
13/04:50pm 27.7 22.4 -19.3 4 15.9 S 9 15 5 8 - - 0.0
13/04:40pm 27.9 23.0 -19.4 3 16.0 SSW 7 11 4 6 - - 0.0
13/04:30pm 27.9 22.6 -18.8 4 16.0 SW 9 13 5 7 - - 0.0
13/04:20pm 28.1 22.5 -17.8 4 16.0 SW 11 15 6 8 - - 0.0
13/04:10pm 28.2 21.9 -17.3 4 16.0 SSW 15 22 8 12 - - 0.0
13/04:00pm 28.3 22.7 -17.8 4 16.1 SSW 11 19 6 10 - - 0.0
13/03:50pm 28.3 22.2 -12.7 6 15.7 SSW 15 20 8 11 - - 0.0
13/03:40pm 28.3 23.8 -15.0 5 15.9 WSW 6 9 3 5 - - 0.0
13/03:30pm 28.0 22.7 -12.7 6 15.5 WSW 11 15 6 8 - - 0.0
13/03:20pm 28.2 23.0 -11.3 7 15.4 WSW 11 15 6 8 - - 0.0
13/03:10pm 28.0 22.9 -14.5 5 15.7 WSW 9 17 5 9 - - 0.0
13/03:00pm 28.1 22.1 -12.0 6 15.5 SW 15 19 8 10 - - 0.0
13/02:50pm 28.1 22.3 -14.1 5 15.7 SW 13 22 7 12 - - 0.0
13/02:40pm 27.7 20.9 -12.5 6 15.3 W 19 20 10 11 - - 0.0
13/02:30pm 27.9 21.6 -10.3 7 15.2 WSW 17 20 9 11 - - 0.0
13/02:20pm 27.7 22.9 -10.6 7 15.1 SW 9 17 5 9 - - 0.0
13/02:10pm 27.5 21.9 -11.0 7 15.0 WSW 13 19 7 10 - - 0.0
13/02:00pm 27.2 20.9 -10.7 7 14.8 WSW 17 20 9 11 - - 0.0
13/01:50pm 27.2 22.5 -9.6 8 14.7 W 9 15 5 8 - - 0.0
13/01:40pm 27.2 21.3 -9.6 8 14.7 SW 15 19 8 10 - - 0.0
13/01:30pm 27.1 21.6 -9.3 8 14.6 W 13 22 7 12 - - 0.0
13/01:20pm 26.9 20.1 -9.0 9 14.4 WSW 20 24 11 13 - - 0.0
13/01:10pm 26.5 20.7 -8.7 9 14.2 WSW 15 26 8 14 - - 0.0
13/01:00pm 26.3 18.4 -8.3 9 14.0 WSW 26 30 14 16 - - 0.0
13/12:50pm 26.4 18.5 -9.1 9 14.2 WSW 26 30 14 16 - - 0.0
13/12:40pm 26.0 17.8 -8.2 10 13.8 WSW 28 33 15 18 - - 0.0
13/12:30pm 25.7 18.6 -8.6 10 13.7 W 22 30 12 16 - - 0.0
13/12:20pm 25.6 18.5 -8.7 10 13.7 WSW 22 26 12 14 - - 0.0
13/12:10pm 25.6 18.1 -9.1 9 13.8 WSW 24 32 13 17 - - 0.0
13/12:00pm 25.4 17.9 -9.1 9 13.6 WSW 24 33 13 18 - - 0.0
13/11:50am 25.7 17.0 -8.9 9 13.8 WSW 30 35 16 19 - - 0.0
13/11:40am 25.6 18.4 -9.0 9 13.7 SW 22 28 12 15 - - 0.0
13/11:30am 25.4 18.3 -8.7 10 13.6 WSW 22 28 12 15 - - 0.0
13/11:20am 25.5 18.7 -9.1 9 13.7 SW 20 28 11 15 - - 0.0
13/11:10am 25.7 18.1 -10.3 8 14.0 SW 24 32 13 17 - - 0.0
13/11:00am 24.8 19.7 -9.0 10 13.3 SW 11 17 6 9 - - 0.0
13/10:50am 24.2 17.6 -8.6 10 12.9 WSW 19 24 10 13 - - 0.0
13/10:40am 23.9 18.1 -8.8 10 12.8 SW 15 19 8 10 - - 0.0
13/10:30am 23.6 18.2 -8.5 11 12.6 SW 13 19 7 10 - - 0.0
13/10:20am 23.0 18.0 -8.2 12 12.2 WSW 11 13 6 7 - - 0.0
13/10:10am 22.9 17.9 -8.5 11 12.2 SW 11 13 6 7 - - 0.0
13/10:00am 22.3 18.1 -7.3 13 11.7 SSW 7 11 4 6 - - 0.0
13/09:50am 21.4 16.9 -7.2 14 11.3 SW 9 11 5 6 - - 0.0
13/09:40am 20.9 16.4 -7.1 14 11.0 WSW 9 11 5 6 - - 0.0
13/09:30am 20.3 15.4 -7.3 15 10.7 WSW 11 13 6 7 - - 0.0
13/09:20am 19.9 15.4 -7.0 15 10.5 SW 9 11 5 6 - - 0.0
13/09:10am 19.4 15.7 -5.0 19 9.8 WSW 6 7 3 4 - - 0.0
13/09:00am 19.0 15.7 -4.4 20 9.5 W 4 6 2 3 - - 0.0
13/08:50am 18.5 16.1 -3.3 22 9.0 CALM 0 2 0 1 - - 0.0
13/08:40am 17.0 14.6 -3.1 25 8.2 CALM 0 2 0 1 - - 0.0
13/08:30am 15.4 12.7 -2.6 29 7.3 ENE 2 4 1 2 - - 0.0
13/08:20am 14.2 11.2 -2.2 32 6.7 NE 4 6 2 3 - - 0.0
13/08:10am 13.1 10.0 -2.4 34 6.2 NE 4 6 2 3 - - 0.0
13/08:00am 12.0 8.6 -2.3 37 5.7 ENE 6 7 3 4 - - 0.0
13/07:50am 11.0 7.6 -2.2 39 5.2 E 6 6 3 3 - - 0.0
13/07:40am 10.1 6.7 -2.3 42 4.8 E 6 6 3 3 - - 0.0
13/07:30am 9.2 5.5 -2.5 44 4.5 E 7 9 4 5 - - 0.0
13/07:20am 8.3 4.6 -2.5 46 4.1 E 7 9 4 5 - - 0.0
13/07:10am 7.4 3.9 -2.6 49 3.7 E 6 6 3 3 - - 0.0
13/07:00am 6.6 3.5 -2.8 51 3.5 E 4 6 2 3 - - 0.0
13/06:50am 5.7 2.9 -3.1 53 3.2 E 2 4 1 2 - - 0.0
13/06:40am 4.7 1.8 -3.9 53 3.0 NE 2 2 1 1 - - 0.0
13/06:30am 3.8 0.9 -4.6 54 2.8 N 2 4 1 2 - - 0.0
13/06:20am 3.3 0.0 -4.8 55 2.7 NNE 4 4 2 2 - - 0.0
13/06:10am 2.9 -0.4 -4.6 58 2.5 NNE 4 6 2 3 - - 0.0
13/06:00am 2.9 -0.5 -4.9 56 2.6 NNE 4 4 2 2 - - 0.0
13/05:50am 3.0 0.1 -4.3 59 2.5 NE 2 4 1 2 - - 0.0
13/05:40am 3.0 0.0 -4.8 56 2.6 NE 2 4 1 2 - - 0.0
13/05:30am 3.3 0.0 -4.5 56 2.6 NE 4 4 2 2 - - 0.0
13/05:20am 3.4 0.5 -4.0 58 2.5 N 2 6 1 3 - - 0.0
13/05:10am 3.4 0.1 -4.3 57 2.6 N 4 6 2 3 - - 0.0
13/05:00am 3.3 0.0 -4.0 59 2.5 N 4 6 2 3 - - 0.0
13/04:50am 3.5 0.2 -4.3 56 2.7 N 4 4 2 2 - - 0.0
13/04:40am 3.8 0.5 -4.4 55 2.8 N 4 4 2 2 - - 0.0
13/04:30am 4.0 1.1 -4.1 55 2.8 N 2 4 1 2 - - 0.0
13/04:20am 4.4 1.5 -4.4 53 3.0 NE 2 2 1 1 - - 0.0
13/04:00am 5.2 2.4 -3.5 53 3.1 ENE 2 4 1 2 - - 0.0
13/03:50am 5.8 2.4 -2.2 56 3.0 E 6 6 3 3 - - 0.0
13/03:40am 5.9 2.9 -2.2 56 3.0 E 4 6 2 3 - - 0.0
13/03:30am 6.1 3.2 -1.4 58 2.8 - 4 6 2 3 - - 0.0
13/03:20am 6.2 3.2 -1.5 58 2.9 ESE 4 6 2 3 - - 0.0
13/03:10am 6.3 3.3 -1.8 56 3.0 ESE 4 6 2 3 - - 0.0
13/03:00am 6.1 2.8 -1.6 58 2.9 ESE 6 6 3 3 - - 0.0
13/02:50am 6.0 2.7 -1.6 58 2.9 ESE 6 7 3 4 - - 0.0
13/02:40am 6.0 3.1 -1.2 60 2.7 ESE 4 6 2 3 - - 0.0
13/02:30am 6.3 3.2 -2.5 53 3.3 E 4 4 2 2 - - 0.0
13/02:20am 6.8 3.6 -3.9 46 3.8 E 4 4 2 2 - - 0.0
13/02:10am 6.6 3.7 -4.1 46 3.8 ENE 2 6 1 3 - - 0.0
13/02:00am 6.6 3.7 -3.9 47 3.8 ENE 2 4 1 2 - - 0.0
13/01:50am 6.4 3.5 -3.8 48 3.7 ENE 2 4 1 2 - - 0.0
13/01:40am 6.5 3.6 -3.9 47 3.7 NE 2 2 1 1 - - 0.0
13/01:30am 6.9 4.1 -3.6 47 3.8 NE 2 4 1 2 - - 0.0
13/01:20am 7.1 3.9 -3.6 46 3.9 ENE 4 6 2 3 - - 0.0
13/01:10am 6.9 3.4 -2.8 50 3.6 ENE 6 6 3 3 - - 0.0
13/01:00am 6.7 3.8 -3.8 47 3.8 ENE 2 4 1 2 - - 0.0
13/12:50am 7.2 4.8 -3.4 47 3.9 CALM 0 2 0 1 - - 0.0
13/12:40am 7.4 4.7 -2.1 51 3.6 ENE 2 4 1 2 - - 0.0
13/12:30am 7.6 5.0 -1.9 51 3.6 ENE 2 4 1 2 - - 0.0
13/12:20am 7.8 5.3 -1.1 53 3.5 E 2 4 1 2 - - 0.0
13/12:10am 7.8 5.0 -0.7 55 3.3 - 4 6 2 3 - - 0.0
13/12:00am 8.1 5.1 -2.2 48 3.9 E 4 6 2 3 - - 0.0
 
Date/Time
EST
Temp
°C
App
Temp
°C
Dew
Point
°C
Rel
Hum
%
Delta-T
°C
Wind Press
QNH
hPa
Press
MSL
hPa
Rain since
9am
mm
Dir  Spd
km/h
Gust
km/h
Spd
kts
Gust
kts
12/11:50pm 8.3 5.4 -1.4 50 3.8 E 4 4 2 2 - - 0.0
12/11:40pm 8.3 5.4 -1.1 51 3.7 E 4 7 2 4 - - 0.0
12/11:30pm 8.9 5.6 -1.4 48 4.0 E 6 7 3 4 - - 0.0
12/11:20pm 8.8 6.1 -2.6 44 4.3 E 2 4 1 2 - - 0.0
12/11:10pm 9.0 6.7 -2.7 43 4.4 CALM 0 2 0 1 - - 0.0
12/11:00pm 9.3 6.3 -2.1 45 4.4 ENE 4 4 2 2 - - 0.0
12/10:50pm 9.2 6.7 -0.7 50 3.9 E 2 4 1 2 - - 0.0
12/10:40pm 9.4 7.3 -0.7 49 4.0 CALM 0 0 0 0 - - 0.0
12/10:30pm 9.8 7.7 -0.9 47 4.3 CALM 0 0 0 0 - - 0.0
12/10:20pm 10.0 7.9 -0.8 47 4.3 CALM 0 2 0 1 - - 0.0
12/10:10pm 10.3 8.0 0.4 50 4.1 E 2 4 1 2 - - 0.0
12/10:00pm 10.7 8.2 -0.8 45 4.6 ENE 2 6 1 3 - - 0.0
12/09:50pm 11.0 8.1 -1.4 42 5.0 E 4 6 2 3 - - 0.0
12/09:40pm 11.3 8.8 -1.2 42 5.0 E 2 2 1 1 - - 0.0
12/09:30pm 11.7 9.1 -1.6 39 5.3 ENE 2 4 1 2 - - 0.0
12/09:20pm 12.1 9.5 -1.5 39 5.5 E 2 6 1 3 - - 0.0
12/09:10pm 12.2 9.5 -2.1 37 5.7 ESE 2 4 1 2 - - 0.0
12/09:00pm 12.4 10.1 -2.0 36 5.8 CALM 0 2 0 1 - - 0.0
12/08:50pm 12.6 10.3 -2.1 36 5.9 CALM 0 0 0 0 - - 0.0
12/08:40pm 12.6 10.2 -2.8 34 6.1 CALM 0 2 0 1 - - 0.0
12/08:30pm 12.8 10.5 -2.5 34 6.1 CALM 0 2 0 1 - - 0.0
12/08:20pm 13.3 11.0 -2.4 33 6.3 CALM 0 2 0 1 - - 0.0
12/08:10pm 13.8 11.1 -2.7 32 6.6 NNE 2 4 1 2 - - 0.0
12/08:00pm 14.4 11.7 -2.5 31 6.8 NNE 2 4 1 2 - - 0.0
12/07:50pm 14.8 12.2 -1.9 31 6.9 N 2 4 1 2 - - 0.0
12/07:40pm 15.0 12.8 -1.3 32 6.8 CALM 0 0 0 0 - - 0.0
12/07:30pm 15.5 12.9 -1.6 31 7.1 NNE 2 2 1 1 - - 0.0
12/07:20pm 16.2 13.9 -2.2 28 7.6 CALM 0 0 0 0 - - 0.0
12/07:00pm 17.5 14.9 -1.4 27 8.1 NNW 2 4 1 2 - - 0.0
12/06:50pm 18.2 15.2 -2.0 25 8.6 NNW 4 4 2 2 - - 0.0
12/06:40pm 18.8 16.2 -1.8 24 8.8 NNW 2 4 1 2 - - 0.0
12/06:30pm 19.2 16.9 -2.0 23 9.1 CALM 0 0 0 0 - - 0.0
12/06:20pm 19.4 16.4 -1.9 23 9.1 SW 4 6 2 3 - - 0.0
12/06:10pm 19.9 16.5 -2.0 22 9.4 SW 6 6 3 3 - - 0.0
12/06:00pm 20.4 16.8 -2.2 21 9.7 SW 7 9 4 5 - - 0.0
12/05:50pm 20.8 16.8 -2.0 21 9.9 WSW 9 9 5 5 - - 0.0
12/05:40pm 21.5 17.5 -2.3 20 10.3 WSW 9 11 5 6 - - 0.0
12/05:30pm 22.2 17.7 -2.9 18 10.8 WSW 11 13 6 7 - - 0.0
12/05:20pm 22.8 17.5 -3.9 16 11.4 WSW 15 17 8 9 - - 0.0
12/05:00pm 23.3 18.0 -3.7 16 11.6 WSW 15 17 8 9 - - 0.0
12/04:50pm 23.5 18.6 -3.4 16 11.6 SW 13 17 7 9 - - 0.0
12/04:40pm 23.6 17.9 -3.5 16 11.7 SW 17 20 9 11 - - 0.0
12/04:30pm 23.8 18.9 -3.2 16 11.8 WSW 13 17 7 9 - - 0.0
12/04:20pm 23.8 19.0 -2.7 17 11.6 WSW 13 17 7 9 - - 0.0
12/04:10pm 24.0 18.8 -2.8 16 11.8 WSW 15 17 8 9 - - 0.0
12/04:00pm 24.1 19.4 -1.9 17 11.6 SW 13 19 7 10 - - 0.0

Other formats

Comma delimited format used in spreadsheet applications
http://www.bom.gov.au/fwo/IDQ60801/IDQ60801.99122.axf

JavaScript Object Notation format (JSON) in row-major order
http://www.bom.gov.au/fwo/IDQ60801/IDQ60801.99122.json

Data quality

Most of these data are generated automatically and are frequently updated. Quality checks on data are not normally performed. It is possible for incorrect values to appear. Refer to information at About Latest Weather Observations and please check the disclaimer before using these data.